Time;durP1;ratioP1;P1;durP2;ratioP2;P2;SDS_P1;SDS_P2;PMS_P1;PMS_P2;Temp;Humidity;BMP_temperature;BMP_pressure;BME280_temperature;BME280_humidity;BME280_pressure;Samples;Min_cycle;Max_cycle;Signal;HPM_P1;HPM_P2
2023/12/26 00:01:57;;;;;;;;;;;8.50;99.90;;;;;;5107056;28;20229;-72
2023/12/26 00:04:24;;;;;;;;;;;8.50;99.90;;;;;;5097147;28;19927;-74
2023/12/26 00:06:50;;;;;;;;;;;8.50;99.90;;;;;;5099688;28;20210;-70
2023/12/26 00:09:19;;;;;;;;;;;8.50;99.90;;;;;;5099196;28;20090;-72
2023/12/26 00:11:46;;;;;;;;;;;8.50;99.90;;;;;;5106797;28;19983;-72
2023/12/26 00:14:16;;;;;;;;;;;8.50;99.90;;;;;;5106456;28;19928;-72
2023/12/26 00:16:43;;;;;;;;;;;8.40;99.90;;;;;;5107251;28;19920;-72
2023/12/26 00:19:10;;;;;;;;;;;8.40;99.90;;;;;;5106626;28;19927;-72
2023/12/26 00:21:37;;;;;;;;;;;8.40;99.90;;;;;;5106662;28;20214;-72
2023/12/26 00:24:03;;;;;;;;;;;8.40;99.90;;;;;;5106335;28;20214;-72
2023/12/26 00:26:32;;;;;;;;;;;8.40;99.90;;;;;;5106115;28;19963;-72
2023/12/26 00:28:58;;;;;;;;;;;8.30;99.90;;;;;;5106074;28;19920;-72
2023/12/26 00:31:25;;;;;;;;;;;8.30;99.90;;;;;;5106445;28;19920;-76
2023/12/26 00:33:53;;;;;;;;;;;8.30;99.90;;;;;;5106227;28;20205;-72
2023/12/26 00:36:20;;;;;;;;;;;8.30;99.90;;;;;;5106435;28;19920;-72
2023/12/26 00:38:47;;;;;;;;;;;8.30;99.90;;;;;;5105166;28;19920;-72
2023/12/26 00:41:14;;;;;;;;;;;8.20;99.90;;;;;;5106592;28;19920;-72
2023/12/26 00:43:42;;;;;;;;;;;8.10;99.90;;;;;;5106268;28;19966;-72
2023/12/26 00:46:09;;;;;;;;;;;8.10;99.90;;;;;;5106230;28;19927;-73
2023/12/26 00:48:36;;;;;;;;;;;8.10;99.90;;;;;;5106092;28;19927;-74
2023/12/26 00:51:03;;;;;;;;;;;8.10;99.90;;;;;;5106470;28;19927;-72
2023/12/26 00:53:30;;;;;;;;;;;8.10;99.90;;;;;;5106085;28;19920;-74
2023/12/26 00:55:56;;;;;;;;;;;8.10;99.90;;;;;;5106496;28;19920;-72
2023/12/26 00:58:23;;;;;;;;;;;8.00;99.90;;;;;;5106202;28;19920;-72
2023/12/26 01:00:51;;;;;;;;;;;8.00;99.90;;;;;;5105243;28;20114;-72
2023/12/26 01:03:21;;;;;;;;;;;8.00;99.90;;;;;;5105559;28;19962;-72
2023/12/26 01:05:48;;;;;;;;;;;8.00;99.90;;;;;;5094046;28;19921;-74
2023/12/26 01:08:16;;;;;;;;;;;7.90;99.90;;;;;;5101891;28;19943;-72
2023/12/26 01:10:42;;;;;;;;;;;8.00;99.90;;;;;;5097093;28;19920;-71
2023/12/26 01:13:09;;;;;;;;;;;8.00;99.90;;;;;;5105302;28;19920;-72
2023/12/26 01:15:36;;;;;;;;;;;7.90;99.90;;;;;;5106084;28;19920;-73
2023/12/26 01:18:04;;;;;;;;;;;7.90;99.90;;;;;;5105455;28;19920;-72
2023/12/26 01:20:31;;;;;;;;;;;7.90;99.90;;;;;;5105906;28;19958;-72
2023/12/26 01:22:57;;;;;;;;;;;7.90;99.90;;;;;;5105470;28;19921;-72
2023/12/26 01:25:24;;;;;;;;;;;7.90;99.90;;;;;;5105884;28;19958;-73
2023/12/26 01:27:50;;;;;;;;;;;7.90;99.90;;;;;;5105564;28;19920;-73
2023/12/26 01:30:19;;;;;;;;;;;7.80;99.90;;;;;;5105792;28;19958;-71
2023/12/26 01:32:45;;;;;;;;;;;7.90;99.90;;;;;;5097311;28;19987;-73
2023/12/26 01:35:13;;;;;;;;;;;7.90;99.90;;;;;;5105768;28;19927;-72
2023/12/26 01:37:40;;;;;;;;;;;7.90;99.90;;;;;;5105389;28;20304;-73
2023/12/26 01:40:07;;;;;;;;;;;7.90;99.90;;;;;;5105432;28;20113;-72
2023/12/26 01:42:34;;;;;;;;;;;7.90;99.90;;;;;;5105055;28;20160;-70
2023/12/26 01:45:01;;;;;;;;;;;7.90;99.90;;;;;;5105223;28;19946;-72
2023/12/26 01:47:28;;;;;;;;;;;7.90;99.90;;;;;;5104822;28;20025;-72
2023/12/26 01:49:54;;;;;;;;;;;7.90;99.90;;;;;;5105097;28;19920;-72
2023/12/26 01:52:23;;;;;;;;;;;7.90;99.90;;;;;;5104779;28;20229;-72
2023/12/26 01:54:49;;;;;;;;;;;7.90;99.90;;;;;;5104707;28;19926;-71
2023/12/26 01:57:16;;;;;;;;;;;7.90;99.90;;;;;;5104901;28;20218;-73
2023/12/26 01:59:43;;;;;;;;;;;8.00;99.90;;;;;;5105102;28;19946;-72
2023/12/26 02:02:10;;;;;;;;;;;8.00;99.90;;;;;;5105219;28;19921;-72
2023/12/26 02:04:38;;;;;;;;;;;8.00;99.90;;;;;;5093807;28;19931;-72
2023/12/26 02:07:06;;;;;;;;;;;8.00;99.90;;;;;;5099478;28;19959;-72
2023/12/26 02:09:34;;;;;;;;;;;8.00;99.90;;;;;;5104540;28;19920;-73
2023/12/26 02:12:01;;;;;;;;;;;8.00;99.90;;;;;;5104765;28;19920;-72
2023/12/26 02:14:27;;;;;;;;;;;8.00;99.90;;;;;;5103990;28;19927;-72
2023/12/26 02:16:55;;;;;;;;;;;8.00;99.90;;;;;;5104908;28;20122;-72
2023/12/26 02:19:21;;;;;;;;;;;7.90;99.90;;;;;;5104611;28;19983;-72
2023/12/26 02:21:48;;;;;;;;;;;7.90;99.90;;;;;;5104444;28;19921;-74
2023/12/26 02:24:16;;;;;;;;;;;7.90;99.90;;;;;;5104147;28;19920;-72
2023/12/26 02:26:43;;;;;;;;;;;7.90;99.90;;;;;;5104223;28;19920;-72
2023/12/26 02:29:10;;;;;;;;;;;7.90;99.90;;;;;;5097078;28;19927;-71
2023/12/26 02:31:38;;;;;;;;;;;7.90;99.90;;;;;;5095172;28;19920;-74
2023/12/26 02:34:04;;;;;;;;;;;7.90;99.90;;;;;;5095491;28;19920;-72
2023/12/26 02:36:31;;;;;;;;;;;7.90;99.90;;;;;;5103892;28;19927;-72
2023/12/26 02:38:58;;;;;;;;;;;7.90;99.90;;;;;;5104332;28;19927;-72
2023/12/26 02:41:26;;;;;;;;;;;7.90;99.90;;;;;;5104235;28;19920;-73
2023/12/26 02:43:52;;;;;;;;;;;7.90;99.90;;;;;;5103710;28;19920;-72
2023/12/26 02:46:19;;;;;;;;;;;7.90;99.90;;;;;;5103680;28;19977;-72
2023/12/26 02:48:46;;;;;;;;;;;7.90;99.90;;;;;;5103911;28;19946;-72
2023/12/26 02:51:12;;;;;;;;;;;7.80;99.90;;;;;;5104093;28;19955;-72
2023/12/26 02:53:39;;;;;;;;;;;7.80;99.90;;;;;;5103713;28;19920;-74
2023/12/26 02:56:06;;;;;;;;;;;7.80;99.90;;;;;;5103949;28;19963;-73
2023/12/26 02:58:34;;;;;;;;;;;7.80;99.90;;;;;;5103817;28;19920;-72
2023/12/26 03:01:01;;;;;;;;;;;7.70;99.90;;;;;;5104074;28;19927;-74
2023/12/26 03:03:27;;;;;;;;;;;7.70;99.90;;;;;;5103097;28;19920;-72
2023/12/26 03:05:54;;;;;;;;;;;7.70;99.90;;;;;;5103571;28;19927;-72
2023/12/26 03:08:21;;;;;;;;;;;7.70;99.90;;;;;;5102982;28;20206;-72
2023/12/26 03:10:47;;;;;;;;;;;7.70;99.90;;;;;;5103652;28;19920;-72
2023/12/26 03:13:14;;;;;;;;;;;7.70;99.90;;;;;;5103284;28;19920;-72
2023/12/26 03:15:42;;;;;;;;;;;7.70;99.90;;;;;;5104081;28;19927;-73
2023/12/26 03:18:08;;;;;;;;;;;7.70;99.90;;;;;;5103444;28;19928;-71
2023/12/26 03:20:35;;;;;;;;;;;7.60;99.90;;;;;;5103513;28;19920;-72
2023/12/26 03:23:02;;;;;;;;;;;7.60;99.90;;;;;;5102609;28;19920;-72
2023/12/26 03:25:28;;;;;;;;;;;7.60;99.90;;;;;;5103444;28;19920;-72
2023/12/26 03:27:55;;;;;;;;;;;7.60;99.90;;;;;;5100157;28;19920;-71
2023/12/26 03:30:22;;;;;;;;;;;7.70;99.90;;;;;;5102791;28;20210;-71
2023/12/26 03:32:50;;;;;;;;;;;7.70;99.90;;;;;;5094992;28;20210;-72
2023/12/26 03:35:16;;;;;;;;;;;7.70;99.90;;;;;;5103729;28;19935;-72
2023/12/26 03:37:43;;;;;;;;;;;7.60;99.90;;;;;;5103332;28;19920;-72
2023/12/26 03:40:11;;;;;;;;;;;7.60;99.90;;;;;;5102149;28;19942;-72
2023/12/26 03:42:37;;;;;;;;;;;7.70;99.90;;;;;;5103065;28;19955;-72
2023/12/26 03:45:04;;;;;;;;;;;7.70;99.90;;;;;;5103500;28;19920;-73
2023/12/26 03:47:31;;;;;;;;;;;7.70;99.90;;;;;;5102108;28;19998;-72
2023/12/26 03:50:00;;;;;;;;;;;7.60;99.90;;;;;;5094890;28;19920;-71
2023/12/26 03:52:27;;;;;;;;;;;7.70;99.90;;;;;;5103066;28;19959;-72
2023/12/26 03:54:54;;;;;;;;;;;7.70;99.90;;;;;;5102784;28;19920;-71
2023/12/26 03:57:21;;;;;;;;;;;7.70;99.90;;;;;;5103165;28;20099;-72
2023/12/26 03:59:47;;;;;;;;;;;7.70;99.90;;;;;;5103461;28;19920;-70
2023/12/26 04:02:14;;;;;;;;;;;7.70;99.90;;;;;;5103503;28;19920;-72
2023/12/26 04:04:41;;;;;;;;;;;7.80;99.90;;;;;;5098594;28;19957;-72
2023/12/26 04:07:09;;;;;;;;;;;7.80;99.90;;;;;;5083695;28;19920;-72
2023/12/26 04:09:35;;;;;;;;;;;7.80;99.90;;;;;;5083460;28;19987;-72
2023/12/26 04:12:02;;;;;;;;;;;7.80;99.90;;;;;;5089547;28;20209;-71
2023/12/26 04:14:29;;;;;;;;;;;7.80;99.90;;;;;;5102479;28;19935;-73
2023/12/26 04:16:55;;;;;;;;;;;7.80;99.90;;;;;;5103301;28;19950;-72
2023/12/26 04:19:22;;;;;;;;;;;7.80;99.90;;;;;;5103190;28;19927;-72
2023/12/26 04:21:49;;;;;;;;;;;7.80;99.90;;;;;;5103255;28;19924;-71
2023/12/26 04:24:17;;;;;;;;;;;7.90;99.90;;;;;;5102551;28;19920;-72
2023/12/26 04:26:43;;;;;;;;;;;7.90;99.90;;;;;;5103198;28;19927;-71
2023/12/26 04:29:10;;;;;;;;;;;7.90;99.90;;;;;;5101201;28;20053;-74
2023/12/26 04:31:37;;;;;;;;;;;7.90;99.90;;;;;;5103151;28;19920;-72
2023/12/26 04:34:03;;;;;;;;;;;7.90;99.90;;;;;;5102988;28;19927;-72
2023/12/26 04:36:33;;;;;;;;;;;7.90;99.90;;;;;;5106848;28;19953;-72
2023/12/26 04:38:59;;;;;;;;;;;7.90;99.90;;;;;;5105572;28;19924;-71
2023/12/26 04:41:27;;;;;;;;;;;7.90;99.90;;;;;;5097939;28;19920;-72
2023/12/26 04:43:54;;;;;;;;;;;7.90;99.90;;;;;;5106178;28;19920;-72
2023/12/26 04:46:21;;;;;;;;;;;8.00;99.90;;;;;;5098270;28;19920;-71
2023/12/26 04:48:47;;;;;;;;;;;8.00;99.90;;;;;;5106236;28;19959;-73
2023/12/26 04:51:17;;;;;;;;;;;8.00;99.90;;;;;;5106301;28;19920;-72
2023/12/26 04:53:45;;;;;;;;;;;8.00;99.90;;;;;;5105800;28;20229;-72
2023/12/26 04:56:15;;;;;;;;;;;8.00;99.90;;;;;;5106651;28;19920;-74
2023/12/26 04:58:43;;;;;;;;;;;8.00;99.90;;;;;;5097917;28;19920;-73
2023/12/26 05:01:10;;;;;;;;;;;8.00;99.90;;;;;;5106235;28;20152;-72
2023/12/26 05:03:37;;;;;;;;;;;8.00;99.90;;;;;;5105617;28;20098;-71
2023/12/26 05:06:04;;;;;;;;;;;8.00;99.90;;;;;;5106301;28;20154;-72
2023/12/26 05:08:31;;;;;;;;;;;8.00;99.90;;;;;;5105878;28;19965;-72
2023/12/26 05:10:57;;;;;;;;;;;8.00;99.90;;;;;;5105407;28;20198;-73
2023/12/26 05:13:24;;;;;;;;;;;8.00;99.90;;;;;;5097485;28;20244;-72
2023/12/26 05:15:52;;;;;;;;;;;8.00;99.90;;;;;;5106200;28;20125;-72
2023/12/26 05:18:19;;;;;;;;;;;8.00;99.90;;;;;;5105988;28;19920;-72
2023/12/26 05:20:45;;;;;;;;;;;8.00;99.90;;;;;;5106077;28;19920;-73
2023/12/26 05:23:12;;;;;;;;;;;7.90;99.90;;;;;;5105513;28;19920;-71
2023/12/26 05:25:38;;;;;;;;;;;7.90;99.90;;;;;;5106038;28;19927;-72
2023/12/26 05:28:05;;;;;;;;;;;7.90;99.90;;;;;;5098705;28;19927;-70
2023/12/26 05:30:32;;;;;;;;;;;7.90;99.90;;;;;;5102481;28;20249;-73
2023/12/26 05:33:00;;;;;;;;;;;7.90;99.90;;;;;;5104914;28;20114;-73
2023/12/26 05:35:27;;;;;;;;;;;7.90;99.90;;;;;;5097582;28;20091;-72
2023/12/26 05:37:54;;;;;;;;;;;7.90;99.90;;;;;;5100530;28;20118;-73
2023/12/26 05:40:20;;;;;;;;;;;7.90;99.90;;;;;;5102340;28;20110;-72
2023/12/26 05:42:47;;;;;;;;;;;7.90;99.90;;;;;;5105087;28;19919;-72
2023/12/26 05:45:14;;;;;;;;;;;7.80;99.90;;;;;;5104896;28;19927;-73
2023/12/26 05:47:41;;;;;;;;;;;7.90;99.90;;;;;;5105435;28;19920;-72
2023/12/26 05:50:09;;;;;;;;;;;7.90;99.90;;;;;;5105316;28;19962;-72
2023/12/26 05:52:36;;;;;;;;;;;7.90;99.90;;;;;;5104564;28;20237;-72
2023/12/26 05:55:03;;;;;;;;;;;7.90;99.90;;;;;;5105180;28;19920;-73
2023/12/26 05:57:30;;;;;;;;;;;7.90;99.90;;;;;;5105171;28;19979;-73
2023/12/26 05:59:57;;;;;;;;;;;7.90;99.90;;;;;;5105254;28;19920;-73
2023/12/26 06:02:24;;;;;;;;;;;7.80;99.90;;;;;;5105188;28;19964;-70
2023/12/26 06:04:51;;;;;;;;;;;7.90;99.90;;;;;;5103225;28;19927;-73
2023/12/26 06:07:19;;;;;;;;;;;7.90;99.90;;;;;;5088001;28;19928;-72
2023/12/26 06:09:45;;;;;;;;;;;7.90;99.90;;;;;;5096983;28;19920;-72
2023/12/26 06:12:12;;;;;;;;;;;7.90;99.90;;;;;;5104936;28;19920;-72
2023/12/26 06:14:39;;;;;;;;;;;7.90;99.90;;;;;;5104231;28;20159;-73
2023/12/26 06:17:06;;;;;;;;;;;7.90;99.90;;;;;;5104550;28;19983;-71
2023/12/26 06:19:32;;;;;;;;;;;7.90;99.90;;;;;;5101498;28;19921;-73
2023/12/26 06:21:59;;;;;;;;;;;7.90;99.90;;;;;;5104645;28;19920;-71
2023/12/26 06:24:27;;;;;;;;;;;7.90;99.90;;;;;;5104429;28;19920;-73
2023/12/26 06:26:54;;;;;;;;;;;7.90;99.90;;;;;;5104430;28;19920;-72
2023/12/26 06:29:20;;;;;;;;;;;7.90;99.90;;;;;;5103153;28;19920;-71
2023/12/26 06:31:47;;;;;;;;;;;7.80;99.90;;;;;;5097016;28;19927;-72
2023/12/26 06:34:14;;;;;;;;;;;7.90;99.90;;;;;;5104233;28;19927;-72
2023/12/26 06:36:40;;;;;;;;;;;7.90;99.90;;;;;;5104275;28;19962;-73
2023/12/26 06:39:07;;;;;;;;;;;7.90;99.90;;;;;;5104116;28;19986;-72
2023/12/26 06:41:35;;;;;;;;;;;7.90;99.90;;;;;;5104117;28;20152;-72
2023/12/26 06:44:02;;;;;;;;;;;7.90;99.90;;;;;;5104144;28;19920;-72
2023/12/26 06:46:28;;;;;;;;;;;7.90;99.90;;;;;;5104007;28;19935;-71
2023/12/26 06:48:55;;;;;;;;;;;7.90;99.90;;;;;;5104125;28;19966;-73
2023/12/26 06:51:22;;;;;;;;;;;7.90;99.90;;;;;;5103583;28;19920;-74
2023/12/26 06:53:48;;;;;;;;;;;7.90;99.90;;;;;;5103819;28;19920;-73
2023/12/26 06:56:15;;;;;;;;;;;7.90;99.90;;;;;;5104157;28;19956;-75
2023/12/26 06:58:43;;;;;;;;;;;7.90;99.90;;;;;;5103062;28;19920;-72
2023/12/26 07:01:10;;;;;;;;;;;8.00;99.90;;;;;;5104136;28;19942;-73
2023/12/26 07:03:37;;;;;;;;;;;7.90;99.90;;;;;;5104369;28;19959;-72
2023/12/26 07:06:03;;;;;;;;;;;8.00;99.90;;;;;;5103956;28;19927;-72
2023/12/26 07:08:30;;;;;;;;;;;8.00;99.90;;;;;;5103442;28;19920;-73
2023/12/26 07:10:57;;;;;;;;;;;8.00;99.90;;;;;;5103572;28;19920;-73
2023/12/26 07:13:23;;;;;;;;;;;8.00;99.90;;;;;;5103091;28;19920;-71
2023/12/26 07:15:53;;;;;;;;;;;8.00;99.90;;;;;;5103330;28;20205;-72
2023/12/26 07:18:20;;;;;;;;;;;8.00;99.90;;;;;;5103654;28;19927;-74
2023/12/26 07:20:46;;;;;;;;;;;8.00;99.90;;;;;;5103796;28;19927;-72
2023/12/26 07:23:13;;;;;;;;;;;8.00;99.90;;;;;;5103340;28;19924;-73
2023/12/26 07:25:41;;;;;;;;;;;8.00;99.90;;;;;;5103481;28;19966;-72
2023/12/26 07:28:07;;;;;;;;;;;8.00;99.90;;;;;;5103187;28;19928;-72
2023/12/26 07:30:34;;;;;;;;;;;8.00;99.90;;;;;;5092574;28;19959;-74
2023/12/26 07:33:02;;;;;;;;;;;8.00;99.90;;;;;;5097180;28;19927;-72
2023/12/26 07:35:30;;;;;;;;;;;8.00;99.90;;;;;;5095216;28;19952;-73
2023/12/26 07:37:57;;;;;;;;;;;8.00;99.90;;;;;;5103187;28;20091;-73
2023/12/26 07:40:24;;;;;;;;;;;8.00;99.90;;;;;;5103606;28;19920;-72
2023/12/26 07:42:50;;;;;;;;;;;8.00;99.90;;;;;;5103013;28;19920;-71
2023/12/26 07:45:18;;;;;;;;;;;8.00;99.90;;;;;;5103289;28;19927;-72
2023/12/26 07:47:45;;;;;;;;;;;8.00;99.90;;;;;;5087349;28;19978;-72
2023/12/26 07:50:13;;;;;;;;;;;8.00;99.90;;;;;;5103607;28;19928;-73
2023/12/26 07:52:40;;;;;;;;;;;8.00;99.90;;;;;;5103019;28;19920;-72
2023/12/26 07:55:07;;;;;;;;;;;8.00;99.90;;;;;;5096472;28;19928;-73
2023/12/26 07:57:33;;;;;;;;;;;8.00;99.90;;;;;;5101917;28;19927;-72
2023/12/26 08:00:00;;;;;;;;;;;8.00;99.90;;;;;;5103053;28;19927;-72
2023/12/26 08:02:28;;;;;;;;;;;8.00;99.90;;;;;;5103324;28;20114;-72
2023/12/26 08:04:54;;;;;;;;;;;8.00;99.90;;;;;;5096108;28;19956;-72
2023/12/26 08:07:22;;;;;;;;;;;8.00;99.90;;;;;;5091451;28;19951;-72
2023/12/26 08:09:49;;;;;;;;;;;8.00;99.90;;;;;;5098575;28;19920;-73
2023/12/26 08:12:16;;;;;;;;;;;8.00;99.90;;;;;;5091351;28;19920;-72
2023/12/26 08:14:42;;;;;;;;;;;8.00;99.90;;;;;;5102595;28;19928;-72
2023/12/26 08:17:09;;;;;;;;;;;8.00;99.90;;;;;;5102581;28;19923;-71
2023/12/26 08:19:36;;;;;;;;;;;8.00;99.90;;;;;;5107019;28;19920;-72
2023/12/26 08:22:03;;;;;;;;;;;8.00;99.90;;;;;;5106726;28;19942;-72
2023/12/26 08:24:31;;;;;;;;;;;8.00;99.90;;;;;;5106604;28;19921;-71
2023/12/26 08:26:58;;;;;;;;;;;8.00;99.90;;;;;;5106751;28;19920;-72
2023/12/26 08:29:24;;;;;;;;;;;8.00;99.90;;;;;;5105555;28;19920;-72
2023/12/26 08:31:51;;;;;;;;;;;8.00;99.90;;;;;;5106562;28;19920;-72
2023/12/26 08:34:18;;;;;;;;;;;8.00;99.90;;;;;;5098306;28;19920;-71
2023/12/26 08:36:44;;;;;;;;;;;8.00;99.90;;;;;;5106303;28;19951;-71
2023/12/26 08:39:11;;;;;;;;;;;8.00;99.90;;;;;;5106704;28;19920;-72
2023/12/26 08:41:39;;;;;;;;;;;8.00;99.90;;;;;;5106682;28;19935;-73
2023/12/26 08:44:06;;;;;;;;;;;8.00;99.90;;;;;;5106271;28;19942;-72
2023/12/26 08:46:32;;;;;;;;;;;8.10;99.90;;;;;;5106606;28;19920;-71
2023/12/26 08:48:59;;;;;;;;;;;8.10;99.90;;;;;;5106340;28;19927;-72
2023/12/26 08:51:27;;;;;;;;;;;8.10;99.90;;;;;;5106461;28;19928;-72
2023/12/26 08:53:54;;;;;;;;;;;8.10;99.90;;;;;;5105872;28;19927;-73
2023/12/26 08:56:21;;;;;;;;;;;8.10;99.90;;;;;;5106073;28;19934;-72
2023/12/26 08:58:49;;;;;;;;;;;8.10;99.90;;;;;;5106070;28;19920;-73
2023/12/26 09:01:16;;;;;;;;;;;8.10;99.90;;;;;;5106206;28;20114;-72
2023/12/26 09:03:43;;;;;;;;;;;8.10;99.90;;;;;;5105775;28;20117;-71
2023/12/26 09:06:10;;;;;;;;;;;8.10;99.90;;;;;;5106339;28;19920;-72
2023/12/26 09:08:37;;;;;;;;;;;8.10;99.90;;;;;;5106027;28;19920;-71
2023/12/26 09:11:04;;;;;;;;;;;8.10;99.90;;;;;;5106207;28;19928;-72
2023/12/26 09:13:30;;;;;;;;;;;8.10;99.90;;;;;;5105533;28;19927;-72
2023/12/26 09:16:00;;;;;;;;;;;8.10;99.90;;;;;;5105835;28;19927;-72
2023/12/26 09:18:26;;;;;;;;;;;8.10;99.90;;;;;;5105819;28;19920;-71
2023/12/26 09:20:53;;;;;;;;;;;8.10;99.90;;;;;;5105128;28;20194;-72
2023/12/26 09:23:20;;;;;;;;;;;8.20;99.90;;;;;;5105580;28;19927;-72
2023/12/26 09:25:47;;;;;;;;;;;8.20;99.90;;;;;;5105941;28;19927;-72
2023/12/26 09:28:13;;;;;;;;;;;8.20;99.90;;;;;;5105723;28;19920;-72
2023/12/26 09:30:40;;;;;;;;;;;8.10;99.90;;;;;;5105436;28;19928;-72
2023/12/26 09:33:08;;;;;;;;;;;8.20;99.90;;;;;;5105333;28;19943;-72
2023/12/26 09:35:35;;;;;;;;;;;8.10;99.90;;;;;;5105576;28;19955;-72
2023/12/26 09:38:01;;;;;;;;;;;8.10;99.90;;;;;;5105358;28;19920;-72
2023/12/26 09:40:28;;;;;;;;;;;8.10;99.90;;;;;;5105695;28;19927;-71
2023/12/26 09:42:58;;;;;;;;;;;8.10;99.90;;;;;;5104774;28;20203;-70
2023/12/26 09:45:26;;;;;;;;;;;8.20;99.90;;;;;;5105510;28;19924;-73
2023/12/26 09:47:53;;;;;;;;;;;8.10;99.90;;;;;;5105286;28;20293;-72
2023/12/26 09:50:21;;;;;;;;;;;8.10;99.90;;;;;;5105303;28;20005;-73
2023/12/26 09:52:52;;;;;;;;;;;8.00;99.90;;;;;;5104948;28;19943;-72
2023/12/26 09:55:19;;;;;;;;;;;8.00;99.90;;;;;;5105322;28;19979;-72
2023/12/26 09:57:46;;;;;;;;;;;8.00;99.90;;;;;;5097173;28;19927;-72
2023/12/26 10:00:13;;;;;;;;;;;8.00;99.90;;;;;;5105228;28;19920;-71
2023/12/26 10:02:39;;;;;;;;;;;8.00;99.90;;;;;;5104610;28;19927;-72
2023/12/26 10:05:06;;;;;;;;;;;8.00;99.90;;;;;;5103342;28;19927;-73
2023/12/26 10:07:35;;;;;;;;;;;8.00;99.90;;;;;;5104800;28;19920;-71
2023/12/26 10:10:02;;;;;;;;;;;8.00;99.90;;;;;;5104573;28;20095;-72
2023/12/26 10:12:30;;;;;;;;;;;8.00;99.90;;;;;;5102676;28;19982;-72
2023/12/26 10:14:58;;;;;;;;;;;8.00;99.90;;;;;;5104223;28;19920;-72
2023/12/26 10:17:25;;;;;;;;;;;8.00;99.90;;;;;;5104699;28;19920;-72
2023/12/26 10:19:56;;;;;;;;;;;8.00;99.90;;;;;;5104516;28;20209;-72
2023/12/26 10:22:23;;;;;;;;;;;7.90;99.90;;;;;;5104146;28;20113;-72
2023/12/26 10:24:51;;;;;;;;;;;7.90;99.90;;;;;;5104306;28;19928;-71
2023/12/26 10:27:18;;;;;;;;;;;8.00;99.90;;;;;;5104310;28;19927;-72
2023/12/26 10:29:50;;;;;;;;;;;7.90;99.90;;;;;;5104217;28;20222;-71
2023/12/26 10:32:17;;;;;;;;;;;7.90;99.90;;;;;;5103640;28;19921;-72
2023/12/26 10:34:43;;;;;;;;;;;7.90;99.90;;;;;;5100286;28;20214;-72
2023/12/26 10:37:11;;;;;;;;;;;7.80;99.90;;;;;;5099298;28;19942;-72
2023/12/26 10:39:38;;;;;;;;;;;7.90;99.90;;;;;;5104305;28;19993;-72
2023/12/26 10:42:07;;;;;;;;;;;7.90;99.90;;;;;;5104405;28;19920;-72
2023/12/26 10:44:57;;;;;;;;;;;7.80;99.90;;;;;;5103607;28;19986;-72
2023/12/26 10:47:25;;;;;;;;;;;7.80;99.90;;;;;;5103436;28;19926;-72
2023/12/26 10:49:55;;;;;;;;;;;7.80;99.90;;;;;;5104119;28;19920;-72
2023/12/26 10:52:22;;;;;;;;;;;7.70;99.90;;;;;;5104162;28;19924;-75
2023/12/26 10:54:50;;;;;;;;;;;7.80;99.90;;;;;;5103827;28;19920;-72
2023/12/26 10:57:18;;;;;;;;;;;7.80;99.90;;;;;;5104136;28;19924;-72
2023/12/26 13:53:49;;;;;;;;;;;8.00;99.90;;;;;;5097313;28;19931;-70
2023/12/26 13:56:16;;;;;;;;;;;8.00;99.90;;;;;;5105201;28;19975;-72
2023/12/26 13:58:43;;;;;;;;;;;8.00;99.90;;;;;;5105180;28;19962;-71
2023/12/26 14:01:08;;;;;;;;;;;8.00;99.90;;;;;;5101231;28;19927;-72
2023/12/26 14:03:35;;;;;;;;;;;8.00;99.90;;;;;;5103362;28;20099;-71
2023/12/26 14:06:02;;;;;;;;;;;8.00;99.90;;;;;;5104141;28;19931;-73
2023/12/26 14:08:28;;;;;;;;;;;8.00;99.90;;;;;;5095017;28;20218;-72
2023/12/26 14:10:56;;;;;;;;;;;8.00;99.90;;;;;;5097892;28;19963;-72
2023/12/26 14:13:22;;;;;;;;;;;8.00;99.90;;;;;;5103804;28;20214;-71
2023/12/26 14:15:49;;;;;;;;;;;8.00;99.90;;;;;;5104880;28;19938;-72
2023/12/26 14:18:15;;;;;;;;;;;8.00;99.90;;;;;;5104678;28;19920;-71
2023/12/26 14:20:42;;;;;;;;;;;8.00;99.90;;;;;;5104804;28;19927;-72
2023/12/26 14:23:09;;;;;;;;;;;7.90;99.90;;;;;;5104437;28;20087;-72
2023/12/26 14:25:35;;;;;;;;;;;7.90;99.90;;;;;;5104454;28;19951;-72
2023/12/26 14:28:03;;;;;;;;;;;7.80;99.90;;;;;;5104131;28;19962;-72
2023/12/26 14:30:29;;;;;;;;;;;7.90;99.90;;;;;;5103102;28;19920;-72
2023/12/26 14:32:56;;;;;;;;;;;7.80;99.90;;;;;;5103881;28;19916;-71
2023/12/26 14:35:21;;;;;;;;;;;7.80;99.90;;;;;;5095957;28;20186;-72
2023/12/26 14:37:48;;;;;;;;;;;7.70;99.90;;;;;;5099875;28;19916;-73
2023/12/26 14:40:15;;;;;;;;;;;7.80;99.90;;;;;;5091144;28;19920;-72
2023/12/26 14:42:41;;;;;;;;;;;7.80;99.90;;;;;;5103358;28;19928;-72
2023/12/26 14:45:09;;;;;;;;;;;7.70;99.90;;;;;;5103558;28;19920;-71
2023/12/26 14:47:36;;;;;;;;;;;7.70;99.90;;;;;;5104358;28;19920;-72
2023/12/26 14:50:03;;;;;;;;;;;7.80;99.90;;;;;;5104113;28;19960;-73
2023/12/26 14:52:30;;;;;;;;;;;7.70;99.90;;;;;;5103824;28;20169;-73
2023/12/26 14:54:56;;;;;;;;;;;7.80;99.90;;;;;;5103888;28;20126;-71
2023/12/26 14:57:23;;;;;;;;;;;7.70;99.90;;;;;;5104110;28;20154;-71
2023/12/26 14:59:50;;;;;;;;;;;7.70;99.90;;;;;;5103998;28;19987;-71
2023/12/26 15:02:18;;;;;;;;;;;7.80;99.90;;;;;;5103671;28;19955;-72
2023/12/26 15:04:45;;;;;;;;;;;7.80;99.90;;;;;;5090584;28;20134;-72
2023/12/26 15:07:11;;;;;;;;;;;7.80;99.90;;;;;;5092221;28;19920;-72
2023/12/26 15:09:38;;;;;;;;;;;7.80;99.90;;;;;;5102823;28;19924;-71
2023/12/26 15:12:05;;;;;;;;;;;7.90;99.90;;;;;;5103885;28;20087;-71
2023/12/26 15:14:32;;;;;;;;;;;7.90;99.90;;;;;;5103369;28;19920;-71
2023/12/26 15:16:59;;;;;;;;;;;7.90;99.90;;;;;;5103955;28;20202;-71
2023/12/26 15:19:27;;;;;;;;;;;8.00;99.90;;;;;;5103157;28;19920;-72
2023/12/26 15:21:54;;;;;;;;;;;7.90;99.90;;;;;;5103744;28;19961;-72
2023/12/26 15:24:20;;;;;;;;;;;7.90;99.90;;;;;;5103225;28;19920;-71
2023/12/26 15:26:47;;;;;;;;;;;7.90;99.90;;;;;;5103835;28;19920;-72
2023/12/26 15:29:14;;;;;;;;;;;7.90;99.90;;;;;;5095509;28;19920;-73
2023/12/26 15:31:41;;;;;;;;;;;7.90;99.90;;;;;;5094973;28;19938;-71
2023/12/26 15:34:08;;;;;;;;;;;7.90;99.90;;;;;;5103461;28;19921;-71
2023/12/26 15:36:36;;;;;;;;;;;8.00;99.90;;;;;;5103321;28;20267;-71
2023/12/26 15:39:03;;;;;;;;;;;7.90;99.90;;;;;;5103516;28;19921;-72
2023/12/26 15:41:30;;;;;;;;;;;7.90;99.90;;;;;;5103628;28;19920;-71
2023/12/26 15:43:57;;;;;;;;;;;7.90;99.90;;;;;;5103004;28;19927;-72
2023/12/26 15:46:24;;;;;;;;;;;8.00;99.90;;;;;;5102619;28;19927;-71
2023/12/26 15:48:51;;;;;;;;;;;7.90;99.90;;;;;;5103487;28;19920;-75
2023/12/26 15:51:19;;;;;;;;;;;7.90;99.90;;;;;;5103487;28;20091;-71
2023/12/26 15:53:48;;;;;;;;;;;7.90;99.90;;;;;;5103348;28;19961;-72
2023/12/26 15:56:15;;;;;;;;;;;7.90;99.90;;;;;;5103495;28;19928;-71
2023/12/26 15:58:42;;;;;;;;;;;7.90;99.90;;;;;;5103009;28;20255;-71
2023/12/26 16:01:09;;;;;;;;;;;7.90;99.90;;;;;;5103250;28;20229;-72
2023/12/26 16:03:36;;;;;;;;;;;7.80;99.90;;;;;;5102097;28;19920;-71
2023/12/26 16:06:03;;;;;;;;;;;7.80;99.90;;;;;;5103177;28;19950;-71
2023/12/26 16:08:30;;;;;;;;;;;7.80;99.90;;;;;;5093564;28;20214;-72
2023/12/26 16:10:58;;;;;;;;;;;7.80;99.90;;;;;;5083614;28;19921;-72
2023/12/26 16:13:25;;;;;;;;;;;7.80;99.90;;;;;;5100216;28;20134;-72
2023/12/26 16:15:51;;;;;;;;;;;7.90;99.90;;;;;;5103107;28;19920;-72
2023/12/26 16:18:18;;;;;;;;;;;7.90;99.90;;;;;;5102925;28;19920;-72
2023/12/26 16:20:45;;;;;;;;;;;7.90;99.90;;;;;;5102717;28;20106;-71
2023/12/26 16:23:12;;;;;;;;;;;7.90;99.90;;;;;;5094750;28;19920;-72
2023/12/26 16:25:41;;;;;;;;;;;7.90;99.90;;;;;;5103256;28;19928;-72
2023/12/26 16:28:10;;;;;;;;;;;7.90;99.90;;;;;;5103058;28;19920;-72
2023/12/26 16:30:37;;;;;;;;;;;8.00;99.90;;;;;;5102052;28;19943;-72
2023/12/26 16:33:04;;;;;;;;;;;7.90;99.90;;;;;;5086906;28;19932;-72
2023/12/26 16:35:30;;;;;;;;;;;7.90;99.90;;;;;;5097122;28;20020;-71
2023/12/26 16:37:57;;;;;;;;;;;7.90;99.90;;;;;;5093173;28;19920;-72
2023/12/26 16:40:24;;;;;;;;;;;7.90;99.90;;;;;;5102234;28;19927;-72
2023/12/26 16:42:50;;;;;;;;;;;7.90;99.90;;;;;;5101463;28;20234;-72
2023/12/26 16:45:20;;;;;;;;;;;7.90;99.90;;;;;;5087065;28;19920;-72
2023/12/26 16:47:47;;;;;;;;;;;7.90;99.90;;;;;;5106594;28;19942;-72
2023/12/26 16:50:14;;;;;;;;;;;7.80;99.90;;;;;;5106683;28;20262;-73
2023/12/26 16:52:40;;;;;;;;;;;7.80;99.90;;;;;;5106112;28;19939;-72
2023/12/26 16:55:08;;;;;;;;;;;7.80;99.90;;;;;;5106284;28;19920;-71
2023/12/26 16:57:35;;;;;;;;;;;7.70;99.90;;;;;;5106514;28;19920;-72
2023/12/26 17:00:02;;;;;;;;;;;7.70;99.90;;;;;;5106529;28;19942;-71
2023/12/26 17:02:30;;;;;;;;;;;7.70;99.90;;;;;;5106291;28;20142;-72
2023/12/26 17:04:57;;;;;;;;;;;7.70;99.90;;;;;;5105758;28;19927;-71
2023/12/26 17:07:23;;;;;;;;;;;7.70;99.90;;;;;;5106430;28;20179;-72
2023/12/26 17:09:50;;;;;;;;;;;7.70;99.90;;;;;;5106853;28;19920;-71
2023/12/26 17:12:17;;;;;;;;;;;7.70;99.90;;;;;;5105891;28;19920;-71
2023/12/26 17:14:44;;;;;;;;;;;7.70;99.90;;;;;;5105664;28;19924;-72
2023/12/26 17:17:11;;;;;;;;;;;7.60;99.90;;;;;;5105540;28;19927;-71
2023/12/26 17:19:40;;;;;;;;;;;7.60;99.90;;;;;;5105840;28;19956;-72
2023/12/26 17:22:10;;;;;;;;;;;7.70;99.90;;;;;;5105675;28;19979;-74
2023/12/26 17:24:37;;;;;;;;;;;7.70;99.90;;;;;;5105533;28;20150;-72